createdAt,value
2023-04-21T00:00:12.945Z,92223.00
2023-04-21T00:01:12.927Z,92223.00
2023-04-21T00:02:12.925Z,92223.00
2023-04-21T00:03:13.005Z,92221.00
2023-04-21T00:04:12.899Z,92221.00
2023-04-21T00:05:13.049Z,92221.00
2023-04-21T00:06:12.783Z,92221.00
2023-04-21T00:07:12.758Z,92221.00
2023-04-21T00:08:12.734Z,92225.00
2023-04-21T00:09:12.697Z,92225.00
2023-04-21T00:10:12.681Z,92223.00
2023-04-21T00:11:12.652Z,92225.00
2023-04-21T00:12:12.631Z,92223.00
2023-04-21T00:13:12.611Z,92221.00
2023-04-21T00:14:12.585Z,92223.00
2023-04-21T00:15:12.567Z,92219.00
2023-04-21T00:16:12.621Z,92219.00
2023-04-21T00:17:12.518Z,92217.00
2023-04-21T00:18:12.501Z,92217.00
2023-04-21T00:19:12.470Z,92217.00
2023-04-21T00:20:12.483Z,92221.00
2023-04-21T00:21:12.444Z,92221.00
2023-04-21T00:22:12.398Z,92225.00
2023-04-21T00:23:12.371Z,92225.00
2023-04-21T00:24:12.346Z,92225.00
2023-04-21T00:25:12.328Z,92226.00
2023-04-21T00:26:12.312Z,92225.00
2023-04-21T00:27:12.279Z,92225.00
2023-04-21T00:28:12.265Z,92226.00
2023-04-21T00:29:12.236Z,92225.00
2023-04-21T00:30:12.210Z,92228.00
2023-04-21T00:31:12.222Z,92228.00
2023-04-21T00:32:12.156Z,92232.00
2023-04-21T00:33:12.130Z,92232.00
2023-04-21T00:34:12.108Z,92234.00
2023-04-21T00:35:12.091Z,92236.00
2023-04-21T00:36:12.067Z,92234.00
2023-04-21T00:37:12.048Z,92236.00
2023-04-21T00:38:12.023Z,92232.00
2023-04-21T00:39:12.014Z,92234.00
2023-04-21T00:40:12.016Z,92236.00
2023-04-21T00:41:11.991Z,92234.00
2023-04-21T00:42:11.965Z,92232.00
2023-04-21T00:43:11.947Z,92232.00
2023-04-21T00:44:11.936Z,92230.00
2023-04-21T00:45:11.905Z,92230.00
2023-04-21T00:46:11.895Z,92230.00
2023-04-21T00:47:11.922Z,92226.00
2023-04-21T00:48:11.842Z,92226.00
2023-04-21T00:49:11.825Z,92226.00
2023-04-21T00:50:11.808Z,92223.00
2023-04-21T00:51:11.785Z,92221.00
2023-04-21T00:52:11.771Z,92219.00
2023-04-21T00:53:11.741Z,92221.00
2023-04-21T00:54:11.714Z,92219.00
2023-04-21T00:55:11.699Z,92217.00
2023-04-21T00:56:11.674Z,92215.00
2023-04-21T00:57:11.658Z,92217.00
2023-04-21T00:58:11.633Z,92213.00
2023-04-21T00:59:11.616Z,92213.00
2023-04-21T01:00:11.597Z,92215.00
2023-04-21T01:01:11.614Z,92215.00
2023-04-21T01:02:11.719Z,92219.00
2023-04-21T01:03:11.689Z,92221.00
2023-04-21T01:04:11.629Z,92219.00
2023-04-21T01:05:11.481Z,92221.00
2023-04-21T01:06:11.467Z,92221.00
2023-04-21T01:07:11.442Z,92219.00
2023-04-21T01:08:11.421Z,92219.00
2023-04-21T01:09:11.399Z,92219.00
2023-04-21T01:10:11.393Z,92221.00
2023-04-21T01:11:11.361Z,92223.00
2023-04-21T01:12:11.340Z,92223.00
2023-04-21T01:13:11.327Z,92226.00
2023-04-21T01:14:11.297Z,92226.00
2023-04-21T01:15:11.275Z,92230.00
2023-04-21T01:16:11.284Z,92230.00
2023-04-21T01:17:11.237Z,92230.00
2023-04-21T01:18:11.245Z,92228.00
2023-04-21T01:19:11.203Z,92232.00
2023-04-21T01:20:11.192Z,92232.00
2023-04-21T01:21:11.225Z,92236.00
2023-04-21T01:22:11.188Z,92234.00
2023-04-21T01:23:11.151Z,92230.00
2023-04-21T01:24:11.130Z,92234.00
2023-04-21T01:25:11.104Z,92236.00
2023-04-21T01:26:11.100Z,92230.00
2023-04-21T01:27:11.078Z,92234.00
2023-04-21T01:28:11.039Z,92234.00
2023-04-21T01:29:11.030Z,92244.00
2023-04-21T01:30:11.015Z,92242.00
2023-04-21T01:31:10.988Z,92246.00
2023-04-21T01:32:11.003Z,92246.00
2023-04-21T01:33:10.955Z,92248.00
2023-04-21T01:34:10.931Z,92250.00
2023-04-21T01:35:10.910Z,92260.00
2023-04-21T01:36:10.880Z,92254.00
2023-04-21T01:37:10.867Z,92258.00
2023-04-21T01:38:10.831Z,92258.00
2023-04-21T01:39:10.817Z,92258.00
2023-04-21T01:40:10.790Z,92258.00
2023-04-21T01:41:10.847Z,92260.00
2023-04-21T01:42:10.757Z,92262.00
2023-04-21T01:43:10.717Z,92260.00
2023-04-21T01:44:10.704Z,92260.00
2023-04-21T01:45:10.683Z,92258.00
2023-04-21T01:46:10.744Z,92258.00
2023-04-21T01:47:10.644Z,92256.00
2023-04-21T01:48:10.689Z,92256.00
2023-04-21T01:49:10.618Z,92252.00
2023-04-21T01:50:10.608Z,92250.00
2023-04-21T01:51:10.566Z,92248.00
2023-04-21T01:52:10.544Z,92246.00
2023-04-21T01:53:10.500Z,92242.00
2023-04-21T01:54:10.477Z,92238.00
2023-04-21T01:55:10.456Z,92236.00
2023-04-21T01:56:10.436Z,92234.00
2023-04-21T01:57:10.470Z,92232.00
2023-04-21T01:58:10.386Z,92230.00
2023-04-21T01:59:10.363Z,92232.00
2023-04-21T02:00:10.341Z,92232.00
2023-04-21T02:01:10.373Z,92232.00
2023-04-21T02:02:10.413Z,92232.00
2023-04-21T02:03:10.423Z,92234.00
2023-04-21T02:04:10.330Z,92236.00
2023-04-21T02:05:10.236Z,92236.00
2023-04-21T02:06:10.221Z,92236.00
2023-04-21T02:07:10.183Z,92238.00
2023-04-21T02:08:10.171Z,92240.00
2023-04-21T02:09:10.145Z,92246.00
2023-04-21T02:10:10.119Z,92246.00
2023-04-21T02:11:10.086Z,92250.00
2023-04-21T02:12:10.085Z,92250.00
2023-04-21T02:13:10.062Z,92250.00
2023-04-21T02:14:10.029Z,92250.00
2023-04-21T02:15:10.008Z,92254.00
2023-04-21T02:16:13.957Z,92254.00
2023-04-21T02:17:09.954Z,92256.00
2023-04-21T02:18:10.008Z,92252.00
2023-04-21T02:19:09.902Z,92252.00
2023-04-21T02:20:09.886Z,92250.00
2023-04-21T02:21:09.863Z,92248.00
2023-04-21T02:22:09.822Z,92246.00
2023-04-21T02:23:09.812Z,92244.00
2023-04-21T02:24:09.791Z,92248.00
2023-04-21T02:25:09.779Z,92248.00
2023-04-21T02:26:09.780Z,92250.00
2023-04-21T02:27:09.751Z,92252.00
2023-04-21T02:28:09.755Z,92252.00
2023-04-21T02:29:09.733Z,92254.00
2023-04-21T02:30:09.706Z,92252.00
2023-04-21T02:31:09.718Z,92254.00
2023-04-21T02:33:09.679Z,92250.00
2023-04-21T02:34:09.636Z,92250.00
2023-04-21T02:35:09.620Z,92250.00
2023-04-21T02:36:09.601Z,92252.00
2023-04-21T02:37:09.568Z,92250.00
2023-04-21T02:38:09.549Z,92252.00
2023-04-21T02:39:09.519Z,92252.00
2023-04-21T02:40:09.496Z,92250.00
2023-04-21T02:41:09.497Z,92250.00
2023-04-21T02:42:09.461Z,92250.00
2023-04-21T02:43:09.433Z,92246.00
2023-04-21T02:44:09.402Z,92248.00
2023-04-21T02:45:09.382Z,92246.00
2023-04-21T02:46:09.403Z,92244.00
2023-04-21T02:47:09.345Z,92246.00
2023-04-21T02:48:09.324Z,92242.00
2023-04-21T02:49:09.298Z,92246.00
2023-04-21T02:50:09.270Z,92246.00
2023-04-21T02:51:09.259Z,92248.00
2023-04-21T02:52:09.228Z,92248.00
2023-04-21T02:53:09.203Z,92250.00
2023-04-21T02:54:09.199Z,92250.00
2023-04-21T02:55:09.169Z,92252.00
2023-04-21T02:56:09.147Z,92254.00
2023-04-21T02:57:09.128Z,92256.00
2023-04-21T02:58:09.110Z,92258.00
2023-04-21T02:59:09.084Z,92260.00
2023-04-21T03:00:09.064Z,92262.00
2023-04-21T03:01:09.098Z,92260.00
2023-04-21T03:02:09.069Z,92258.00
2023-04-21T03:03:09.093Z,92258.00
2023-04-21T03:04:09.126Z,92256.00
2023-04-21T03:05:08.970Z,92258.00
2023-04-21T03:06:08.943Z,92256.00
2023-04-21T03:07:08.913Z,92256.00
2023-04-21T03:08:08.887Z,92256.00
2023-04-21T03:09:08.849Z,92256.00
2023-04-21T03:10:08.842Z,92254.00
2023-04-21T03:11:08.814Z,92256.00
2023-04-21T03:12:08.774Z,92256.00
2023-04-21T03:13:08.755Z,92256.00
2023-04-21T03:14:08.724Z,92260.00
2023-04-21T03:15:08.695Z,92266.00
2023-04-21T03:16:08.719Z,92266.00
2023-04-21T03:17:08.662Z,92268.00
2023-04-21T03:18:08.670Z,92274.00
2023-04-21T03:19:08.606Z,92272.00
2023-04-21T03:20:08.584Z,92272.00
2023-04-21T03:21:08.554Z,92270.00
2023-04-21T03:22:08.529Z,92272.00
2023-04-21T03:23:08.516Z,92270.00
2023-04-21T03:24:08.484Z,92270.00
2023-04-21T03:25:08.499Z,92268.00
2023-04-21T03:26:08.521Z,92270.00
2023-04-21T03:27:10.462Z,92272.00
2023-04-21T03:28:08.634Z,92272.00
2023-04-21T03:29:08.658Z,92276.00
2023-04-21T03:30:08.668Z,92276.00
2023-04-21T03:31:08.671Z,92276.00
2023-04-21T03:32:08.701Z,92276.00
2023-04-21T03:33:08.709Z,92272.00
2023-04-21T03:34:08.699Z,92274.00
2023-04-21T03:35:08.735Z,92272.00
2023-04-21T03:36:08.733Z,92272.00
2023-04-21T03:37:08.760Z,92272.00
2023-04-21T03:38:08.765Z,92280.00
2023-04-21T03:39:19.367Z,92278.00
2023-04-21T03:40:09.761Z,92281.00
2023-04-21T03:41:08.714Z,92280.00
2023-04-21T03:42:08.683Z,92281.00
2023-04-21T03:43:08.650Z,92281.00
2023-04-21T03:44:08.615Z,92281.00
2023-04-21T03:45:08.601Z,92285.00
2023-04-21T03:46:08.587Z,92285.00
2023-04-21T03:47:08.537Z,92283.00
2023-04-21T03:48:08.575Z,92287.00
2023-04-21T03:49:08.545Z,92285.00
2023-04-21T03:50:08.599Z,92285.00
2023-04-21T03:51:08.610Z,92287.00
2023-04-21T03:52:08.652Z,92289.00
2023-04-21T03:53:08.692Z,92289.00
2023-04-21T03:54:08.750Z,92289.00
2023-04-21T03:55:08.773Z,92287.00
2023-04-21T03:56:08.817Z,92287.00
2023-04-21T03:57:08.852Z,92289.00
2023-04-21T03:58:08.902Z,92289.00
2023-04-21T03:59:08.937Z,92293.00
2023-04-21T04:00:08.974Z,92289.00
2023-04-21T04:01:09.056Z,92289.00
2023-04-21T04:02:09.102Z,92289.00
2023-04-21T04:03:09.201Z,92289.00
2023-04-21T04:04:09.339Z,92289.00
2023-04-21T04:05:09.272Z,92287.00
2023-04-21T04:06:09.236Z,92289.00
2023-04-21T04:07:09.269Z,92291.00
2023-04-21T04:08:09.328Z,92293.00
2023-04-21T04:09:09.411Z,92297.00
2023-04-21T04:10:09.363Z,92293.00
2023-04-21T04:11:09.425Z,92293.00
2023-04-21T04:12:11.156Z,92297.00
2023-04-21T04:13:09.489Z,92297.00
2023-04-21T04:14:09.532Z,92297.00
2023-04-21T04:15:09.557Z,92295.00
2023-04-21T04:16:09.673Z,92297.00
2023-04-21T04:17:09.662Z,92295.00
2023-04-21T04:18:09.714Z,92295.00
2023-04-21T04:19:09.697Z,92293.00
2023-04-21T04:20:09.756Z,92293.00
2023-04-21T04:21:09.779Z,92295.00
2023-04-21T04:22:09.820Z,92295.00
2023-04-21T04:23:09.853Z,92295.00
2023-04-21T04:24:09.887Z,92293.00
2023-04-21T04:25:09.915Z,92293.00
2023-04-21T04:26:09.959Z,92291.00
2023-04-21T04:27:09.991Z,92291.00
2023-04-21T04:28:10.593Z,92287.00
2023-04-21T04:29:10.065Z,92289.00
2023-04-21T04:30:10.098Z,92293.00
2023-04-21T04:31:10.196Z,92293.00
2023-04-21T04:32:10.189Z,92293.00
2023-04-21T04:33:10.258Z,92293.00
2023-04-21T04:34:10.261Z,92295.00
2023-04-21T04:35:10.298Z,92297.00
2023-04-21T04:36:10.344Z,92297.00
2023-04-21T04:37:10.380Z,92299.00
2023-04-21T04:38:10.409Z,92297.00
2023-04-21T04:39:10.458Z,92297.00
2023-04-21T04:40:10.520Z,92297.00
2023-04-21T04:41:10.531Z,92297.00
2023-04-21T04:42:10.581Z,92295.00
2023-04-21T04:43:10.638Z,92297.00
2023-04-21T04:44:10.649Z,92297.00
2023-04-21T04:45:10.702Z,92295.00
2023-04-21T04:46:10.736Z,92295.00
2023-04-21T04:47:10.768Z,92297.00
2023-04-21T04:48:10.810Z,92299.00
2023-04-21T04:49:10.868Z,92301.00
2023-04-21T04:50:10.865Z,92301.00
2023-04-21T04:51:10.910Z,92303.00
2023-04-21T04:52:10.942Z,92305.00
2023-04-21T04:53:10.972Z,92305.00
2023-04-21T04:54:11.019Z,92307.00
2023-04-21T04:55:11.058Z,92309.00
2023-04-21T04:56:11.099Z,92311.00
2023-04-21T04:57:11.126Z,92311.00
2023-04-21T04:58:11.177Z,92311.00
2023-04-21T04:59:11.217Z,92311.00
2023-04-21T05:00:11.393Z,92313.00
2023-04-21T05:01:11.302Z,92319.00
2023-04-21T05:02:11.540Z,92317.00
2023-04-21T05:03:11.530Z,92317.00
2023-04-21T05:04:11.543Z,92317.00
2023-04-21T05:05:11.620Z,92317.00
2023-04-21T05:06:11.513Z,92321.00
2023-04-21T05:07:11.532Z,92321.00
2023-04-21T05:08:11.572Z,92323.00
2023-04-21T05:09:11.610Z,92323.00
2023-04-21T05:10:11.665Z,92323.00
2023-04-21T05:11:11.694Z,92323.00
2023-04-21T05:12:11.743Z,92323.00
2023-04-21T05:13:11.805Z,92323.00
2023-04-21T05:14:11.829Z,92323.00
2023-04-21T05:15:11.876Z,92327.00
2023-04-21T05:16:11.928Z,92327.00
2023-04-21T05:17:11.952Z,92327.00
2023-04-21T05:18:12.012Z,92336.00
2023-04-21T05:19:12.025Z,92338.00
2023-04-21T05:20:12.049Z,92338.00
2023-04-21T05:21:12.126Z,92340.00
2023-04-21T05:22:12.119Z,92346.00
2023-04-21T05:23:12.144Z,92348.00
2023-04-21T05:24:12.159Z,92348.00
2023-04-21T05:25:12.178Z,92348.00
2023-04-21T05:26:12.155Z,92350.00
2023-04-21T05:27:12.147Z,92354.00
2023-04-21T05:28:12.140Z,92352.00
2023-04-21T05:29:12.124Z,92352.00
2023-04-21T05:30:12.108Z,92354.00
2023-04-21T05:31:12.100Z,92356.00
2023-04-21T05:32:12.163Z,92356.00
2023-04-21T05:33:12.111Z,92358.00
2023-04-21T05:34:12.057Z,92358.00
2023-04-21T05:35:12.049Z,92358.00
2023-04-21T05:36:12.063Z,92358.00
2023-04-21T05:37:12.097Z,92358.00
2023-04-21T05:38:12.176Z,92358.00
2023-04-21T05:39:12.157Z,92356.00
2023-04-21T05:40:12.181Z,92350.00
2023-04-21T05:41:12.184Z,92348.00
2023-04-21T05:42:12.216Z,92350.00
2023-04-21T05:43:12.196Z,92352.00
2023-04-21T05:44:12.207Z,92350.00
2023-04-21T05:45:12.184Z,92354.00
2023-04-21T05:46:12.231Z,92356.00
2023-04-21T05:47:12.164Z,92356.00
2023-04-21T05:48:13.674Z,92356.00
2023-04-21T05:49:12.114Z,92358.00
2023-04-21T05:50:12.087Z,92358.00
2023-04-21T05:51:12.052Z,92354.00
2023-04-21T05:52:12.036Z,92356.00
2023-04-21T05:53:12.004Z,92354.00
2023-04-21T05:54:11.985Z,92354.00
2023-04-21T05:55:11.979Z,92354.00
2023-04-21T05:56:11.962Z,92352.00
2023-04-21T05:57:11.953Z,92354.00
2023-04-21T05:58:11.942Z,92356.00
2023-04-21T05:59:11.926Z,92354.00
2023-04-21T06:00:11.891Z,92350.00
2023-04-21T06:01:11.864Z,92354.00
2023-04-21T06:02:11.918Z,92352.00
2023-04-21T06:03:11.952Z,92350.00
2023-04-21T06:04:12.041Z,92350.00
2023-04-21T06:05:11.801Z,92352.00
2023-04-21T06:06:11.744Z,92348.00
2023-04-21T06:07:11.693Z,92348.00
2023-04-21T06:08:11.680Z,92350.00
2023-04-21T06:09:11.669Z,92350.00
2023-04-21T06:10:11.680Z,92350.00
2023-04-21T06:11:11.660Z,92352.00
2023-04-21T06:12:11.659Z,92352.00
2023-04-21T06:13:11.650Z,92352.00
2023-04-21T06:14:12.616Z,92352.00
2023-04-21T06:15:11.681Z,92352.00
2023-04-21T06:16:11.731Z,92354.00
2023-04-21T06:17:11.726Z,92358.00
2023-04-21T06:18:11.785Z,92358.00
2023-04-21T06:19:11.786Z,92360.00
2023-04-21T06:20:11.821Z,92360.00
2023-04-21T06:21:11.865Z,92358.00
2023-04-21T06:22:12.623Z,92358.00
2023-04-21T06:23:11.905Z,92358.00
2023-04-21T06:24:11.943Z,92358.00
2023-04-21T06:25:12.902Z,92358.00
2023-04-21T06:26:11.847Z,92358.00
2023-04-21T06:27:11.817Z,92356.00
2023-04-21T06:28:11.776Z,92358.00
2023-04-21T06:29:11.749Z,92356.00
2023-04-21T06:30:11.717Z,92354.00
2023-04-21T06:31:11.705Z,92354.00
2023-04-21T06:32:11.674Z,92350.00
2023-04-21T06:33:11.658Z,92350.00
2023-04-21T06:34:11.655Z,92352.00
2023-04-21T06:35:11.667Z,92350.00
2023-04-21T06:36:12.641Z,92350.00
2023-04-21T06:37:11.708Z,92350.00
2023-04-21T06:38:12.611Z,92352.00
2023-04-21T06:39:11.736Z,92350.00
2023-04-21T06:40:11.724Z,92348.00
2023-04-21T06:41:11.715Z,92348.00
2023-04-21T06:42:11.704Z,92346.00
2023-04-21T06:43:11.677Z,92346.00
2023-04-21T06:44:11.627Z,92344.00
2023-04-21T06:45:11.615Z,92342.00
2023-04-21T06:46:11.594Z,92342.00
2023-04-21T06:47:11.646Z,92342.00
2023-04-21T06:48:11.579Z,92342.00
2023-04-21T06:49:11.496Z,92342.00
2023-04-21T06:50:11.479Z,92342.00
2023-04-21T06:51:11.455Z,92340.00
2023-04-21T06:52:11.456Z,92340.00
2023-04-21T06:53:11.417Z,92340.00
2023-04-21T06:54:11.404Z,92342.00
2023-04-21T06:55:11.383Z,92340.00
2023-04-21T06:56:11.364Z,92338.00
2023-04-21T06:57:11.353Z,92336.00
2023-04-21T06:58:11.358Z,92334.00
2023-04-21T06:59:11.329Z,92336.00
2023-04-21T07:00:11.307Z,92327.00
2023-04-21T07:01:11.305Z,92327.00
2023-04-21T07:02:11.285Z,92327.00
2023-04-21T07:03:11.485Z,92321.00
2023-04-21T07:04:11.279Z,92325.00
2023-04-21T07:05:11.190Z,92323.00
2023-04-21T07:06:11.165Z,92323.00
2023-04-21T07:07:11.153Z,92323.00
2023-04-21T07:08:11.118Z,92325.00
2023-04-21T07:09:11.087Z,92323.00
2023-04-21T07:10:11.088Z,92323.00
2023-04-21T07:11:11.026Z,92317.00
2023-04-21T07:12:11.007Z,92317.00
2023-04-21T07:13:10.982Z,92319.00
2023-04-21T07:14:10.940Z,92315.00
2023-04-21T07:15:10.917Z,92317.00
2023-04-21T07:16:10.913Z,92315.00
2023-04-21T07:17:10.957Z,92315.00
2023-04-21T07:18:10.871Z,92313.00
2023-04-21T07:19:10.833Z,92317.00
2023-04-21T07:20:10.801Z,92313.00
2023-04-21T07:21:10.779Z,92313.00
2023-04-21T07:22:10.752Z,92313.00
2023-04-21T07:23:10.757Z,92317.00
2023-04-21T07:24:10.804Z,92315.00
2023-04-21T07:25:10.799Z,92313.00
2023-04-21T07:26:10.841Z,92315.00
2023-04-21T07:27:10.861Z,92313.00
2023-04-21T07:28:10.889Z,92311.00
2023-04-21T07:29:10.898Z,92311.00
2023-04-21T07:30:10.940Z,92313.00
2023-04-21T07:31:10.945Z,92313.00
2023-04-21T07:32:10.918Z,92315.00
2023-04-21T07:33:10.971Z,92313.00
2023-04-21T07:34:10.919Z,92313.00
2023-04-21T07:35:10.886Z,92313.00
2023-04-21T07:36:10.878Z,92313.00
2023-04-21T07:37:10.857Z,92311.00
2023-04-21T07:38:10.871Z,92307.00
2023-04-21T07:39:10.821Z,92309.00
2023-04-21T07:40:10.802Z,92307.00
2023-04-21T07:41:10.775Z,92307.00
2023-04-21T07:42:10.772Z,92305.00
2023-04-21T07:43:10.726Z,92305.00
2023-04-21T07:44:10.709Z,92305.00
2023-04-21T07:45:10.682Z,92301.00
2023-04-21T07:46:10.722Z,92301.00
2023-04-21T07:47:10.633Z,92297.00
2023-04-21T07:48:10.675Z,92299.00
2023-04-21T07:49:10.570Z,92297.00
2023-04-21T07:50:10.567Z,92299.00
2023-04-21T07:51:10.508Z,92303.00
2023-04-21T07:52:10.479Z,92305.00
2023-04-21T07:53:10.673Z,92307.00
2023-04-21T07:54:10.401Z,92305.00
2023-04-21T07:55:10.367Z,92303.00
2023-04-21T07:56:10.348Z,92305.00
2023-04-21T07:57:10.304Z,92303.00
2023-04-21T07:58:10.262Z,92305.00
2023-04-21T07:59:10.212Z,92301.00
2023-04-21T08:00:11.090Z,92299.00
2023-04-21T08:01:10.162Z,92299.00
2023-04-21T08:02:10.194Z,92297.00
2023-04-21T08:03:10.213Z,92299.00
2023-04-21T08:04:10.186Z,92301.00
2023-04-21T08:05:10.130Z,92301.00
2023-04-21T08:06:10.375Z,92299.00
2023-04-21T08:07:10.113Z,92299.00
2023-04-21T08:08:09.978Z,92301.00
2023-04-21T08:09:10.667Z,92301.00
2023-04-21T08:10:09.911Z,92301.00
2023-04-21T08:11:10.981Z,92299.00
2023-04-21T08:12:10.066Z,92299.00
2023-04-21T08:13:09.861Z,92297.00
2023-04-21T08:14:10.602Z,92299.00
2023-04-21T08:15:09.831Z,92299.00
2023-04-21T08:16:09.905Z,92295.00
2023-04-21T08:17:09.871Z,92291.00
2023-04-21T08:18:09.959Z,92295.00
2023-04-21T08:19:10.295Z,92289.00
2023-04-21T08:20:09.941Z,92291.00
2023-04-21T08:21:09.879Z,92289.00
2023-04-21T08:22:09.853Z,92289.00
2023-04-21T08:23:09.862Z,92287.00
2023-04-21T08:24:09.842Z,92285.00
2023-04-21T08:25:09.828Z,92283.00
2023-04-21T08:26:09.868Z,92283.00
2023-04-21T08:27:09.900Z,92278.00
2023-04-21T08:28:09.879Z,92278.00
2023-04-21T08:29:09.857Z,92276.00
2023-04-21T08:30:09.903Z,92276.00
2023-04-21T08:31:09.912Z,92280.00
2023-04-21T08:32:10.048Z,92276.00
2023-04-21T08:33:10.021Z,92272.00
2023-04-21T08:34:10.029Z,92276.00
2023-04-21T08:35:09.972Z,92276.00
2023-04-21T08:36:18.197Z,92272.00
2023-04-21T08:37:10.975Z,92270.00
2023-04-21T08:38:09.923Z,92270.00
2023-04-21T08:39:09.881Z,92274.00
2023-04-21T08:40:09.851Z,92270.00
2023-04-21T08:41:09.839Z,92272.00
2023-04-21T08:42:09.801Z,92272.00
2023-04-21T08:43:09.786Z,92270.00
2023-04-21T08:44:09.753Z,92268.00
2023-04-21T08:45:09.729Z,92270.00
2023-04-21T08:46:09.758Z,92268.00
2023-04-21T08:47:09.678Z,92272.00
2023-04-21T08:48:09.702Z,92272.00
2023-04-21T08:49:09.602Z,92268.00
2023-04-21T08:50:09.581Z,92268.00
2023-04-21T08:51:09.600Z,92272.00
2023-04-21T08:52:09.635Z,92268.00
2023-04-21T08:53:09.629Z,92268.00
2023-04-21T08:54:09.663Z,92270.00
2023-04-21T08:55:09.694Z,92268.00
2023-04-21T08:56:11.667Z,92268.00
2023-04-21T08:57:15.466Z,92266.00
2023-04-21T08:58:11.182Z,92266.00
2023-04-21T08:59:09.662Z,92262.00
2023-04-21T09:00:09.642Z,92266.00
2023-04-21T09:01:09.616Z,92268.00
2023-04-21T09:02:09.606Z,92270.00
2023-04-21T09:03:19.376Z,92268.00
2023-04-21T09:04:10.737Z,92270.00
2023-04-21T09:05:09.584Z,92268.00
2023-04-21T09:06:09.979Z,92272.00
2023-04-21T09:07:09.347Z,92272.00
2023-04-21T09:08:09.311Z,92270.00
2023-04-21T09:09:09.278Z,92270.00
2023-04-21T09:10:09.235Z,92268.00
2023-04-21T09:11:09.189Z,92264.00
2023-04-21T09:12:09.294Z,92264.00
2023-04-21T09:13:09.113Z,92264.00
2023-04-21T09:14:09.080Z,92268.00
2023-04-21T09:15:09.042Z,92268.00
2023-04-21T09:16:09.038Z,92268.00
2023-04-21T09:17:08.981Z,92268.00
2023-04-21T09:18:08.923Z,92266.00
2023-04-21T09:19:08.885Z,92266.00
2023-04-21T09:20:08.838Z,92266.00
2023-04-21T09:21:08.808Z,92262.00
2023-04-21T09:22:08.777Z,92260.00
2023-04-21T09:23:08.748Z,92258.00
2023-04-21T09:24:08.733Z,92258.00
2023-04-21T09:25:08.733Z,92252.00
2023-04-21T09:26:08.734Z,92252.00
2023-04-21T09:27:08.731Z,92254.00
2023-04-21T09:28:08.752Z,92250.00
2023-04-21T09:29:08.752Z,92254.00
2023-04-21T09:30:08.789Z,92250.00
2023-04-21T09:31:08.816Z,92252.00
2023-04-21T09:32:10.957Z,92252.00
2023-04-21T09:33:20.021Z,92248.00
2023-04-21T09:34:09.803Z,92250.00
2023-04-21T09:35:08.749Z,92252.00
2023-04-21T09:36:08.749Z,92248.00
2023-04-21T09:37:08.711Z,92250.00
2023-04-21T09:38:08.639Z,92248.00
2023-04-21T09:40:09.568Z,92248.00
2023-04-21T09:41:08.522Z,92248.00
2023-04-21T09:42:08.490Z,92244.00
2023-04-21T09:43:08.462Z,92244.00
2023-04-21T09:44:08.425Z,92240.00
2023-04-21T09:45:28.428Z,92238.00
2023-04-21T09:46:09.361Z,92240.00
2023-04-21T09:47:08.307Z,92238.00
2023-04-21T09:48:08.375Z,92236.00
2023-04-21T09:49:08.259Z,92236.00
2023-04-21T09:50:12.287Z,92234.00
2023-04-21T09:52:18.546Z,92232.00
2023-04-21T09:53:09.091Z,92234.00
2023-04-21T09:54:22.101Z,92234.00
2023-04-21T09:55:09.049Z,92232.00
2023-04-21T09:56:07.971Z,92232.00
2023-04-21T09:57:07.939Z,92232.00
2023-04-21T09:58:07.904Z,92228.00
2023-04-21T09:59:07.864Z,92226.00
2023-04-21T10:00:07.827Z,92226.00
2023-04-21T10:01:07.865Z,92223.00
2023-04-21T10:02:08.042Z,92225.00
2023-04-21T10:03:07.822Z,92223.00
2023-04-21T10:04:07.851Z,92223.00
2023-04-21T10:05:07.719Z,92219.00
2023-04-21T10:06:07.780Z,92219.00
2023-04-21T10:07:07.761Z,92215.00
2023-04-21T10:08:07.732Z,92213.00
2023-04-21T10:09:07.737Z,92215.00
2023-04-21T10:10:07.766Z,92217.00
2023-04-21T10:11:07.781Z,92213.00
2023-04-21T10:12:09.500Z,92209.00
2023-04-21T10:13:07.832Z,92209.00
2023-04-21T10:14:07.865Z,92211.00
2023-04-21T10:15:07.892Z,92209.00
2023-04-21T10:16:08.134Z,92207.00
2023-04-21T10:17:07.949Z,92207.00
2023-04-21T10:18:08.210Z,92209.00
2023-04-21T10:19:08.010Z,92207.00
2023-04-21T10:20:08.029Z,92209.00
2023-04-21T10:21:08.050Z,92207.00
2023-04-21T10:22:08.078Z,92207.00
2023-04-21T10:23:08.636Z,92203.00
2023-04-21T10:24:08.106Z,92203.00
2023-04-21T10:25:08.119Z,92201.00
2023-04-21T10:26:08.130Z,92201.00
2023-04-21T10:27:08.156Z,92199.00
2023-04-21T10:28:08.190Z,92199.00
2023-04-21T10:29:08.199Z,92195.00
2023-04-21T10:30:08.215Z,92197.00
2023-04-21T10:31:08.268Z,92193.00
2023-04-21T10:32:09.274Z,92193.00
2023-04-21T10:33:08.311Z,92191.00
2023-04-21T10:34:08.318Z,92189.00
2023-04-21T10:35:08.359Z,92191.00
2023-04-21T10:36:08.364Z,92189.00
2023-04-21T10:37:08.371Z,92187.00
2023-04-21T10:38:08.400Z,92187.00
2023-04-21T10:39:08.420Z,92187.00
2023-04-21T10:40:08.427Z,92189.00
2023-04-21T10:41:08.455Z,92185.00
2023-04-21T10:42:08.491Z,92185.00
2023-04-21T10:43:08.512Z,92181.00
2023-04-21T10:44:08.554Z,92181.00
2023-04-21T10:45:08.578Z,92178.00
2023-04-21T10:46:08.628Z,92179.00
2023-04-21T10:47:08.798Z,92178.00
2023-04-21T10:48:08.763Z,92176.00
2023-04-21T10:49:08.780Z,92176.00
2023-04-21T10:50:08.769Z,92179.00
2023-04-21T10:51:08.803Z,92178.00
2023-04-21T10:52:08.846Z,92178.00
2023-04-21T10:53:08.880Z,92178.00
2023-04-21T10:54:08.918Z,92176.00
2023-04-21T10:55:08.957Z,92178.00
2023-04-21T10:56:08.974Z,92176.00
2023-04-21T10:57:09.015Z,92174.00
2023-04-21T10:58:09.050Z,92174.00
2023-04-21T10:59:09.089Z,92172.00
2023-04-21T11:00:09.097Z,92168.00
2023-04-21T11:01:09.209Z,92164.00
2023-04-21T11:02:09.294Z,92166.00
2023-04-21T11:03:09.307Z,92164.00
2023-04-21T11:04:09.349Z,92158.00
2023-04-21T11:05:09.301Z,92162.00
2023-04-21T11:06:09.291Z,92162.00
2023-04-21T11:07:09.323Z,92160.00
2023-04-21T11:08:09.358Z,92158.00
2023-04-21T11:09:09.389Z,92156.00
2023-04-21T11:10:09.400Z,92150.00
2023-04-21T11:11:09.437Z,92152.00
2023-04-21T11:12:09.476Z,92152.00
2023-04-21T11:13:09.507Z,92152.00
2023-04-21T11:14:09.537Z,92148.00
2023-04-21T11:15:09.565Z,92146.00
2023-04-21T11:16:09.654Z,92150.00
2023-04-21T11:17:09.721Z,92144.00
2023-04-21T11:18:09.733Z,92142.00
2023-04-21T11:19:09.668Z,92142.00
2023-04-21T11:20:09.680Z,92138.00
2023-04-21T11:21:09.711Z,92136.00
2023-04-21T11:22:09.768Z,92132.00
2023-04-21T11:23:09.782Z,92134.00
2023-04-21T11:24:09.825Z,92131.00
2023-04-21T11:25:09.843Z,92131.00
2023-04-21T11:26:09.909Z,92132.00
2023-04-21T11:27:09.917Z,92127.00
2023-04-21T11:28:09.941Z,92127.00
2023-04-21T11:29:09.966Z,92127.00
2023-04-21T11:30:10.007Z,92129.00
2023-04-21T11:31:10.101Z,92129.00
2023-04-21T11:32:10.029Z,92127.00
2023-04-21T11:33:10.117Z,92129.00
2023-04-21T11:34:10.092Z,92127.00
2023-04-21T11:35:10.113Z,92123.00
2023-04-21T11:36:10.133Z,92123.00
2023-04-21T11:37:10.155Z,92127.00
2023-04-21T11:38:10.175Z,92123.00
2023-04-21T11:39:10.213Z,92125.00
2023-04-21T11:40:10.205Z,92127.00
2023-04-21T11:41:10.275Z,92131.00
2023-04-21T11:42:10.268Z,92132.00
2023-04-21T11:43:10.288Z,92131.00
2023-04-21T11:44:10.317Z,92132.00
2023-04-21T11:45:10.327Z,92129.00
2023-04-21T11:46:10.368Z,92121.00
2023-04-21T11:47:10.363Z,92125.00